createdAt,value
2023-05-22T00:01:56.780Z,9.04
2023-05-22T00:04:23.673Z,9.03
2023-05-22T00:06:50.622Z,9.06
2023-05-22T00:09:17.631Z,9.03
2023-05-22T00:11:44.711Z,8.89
2023-05-22T00:14:13.481Z,8.85
2023-05-22T00:16:40.496Z,8.52
2023-05-22T00:19:13.173Z,8.30
2023-05-22T00:21:40.102Z,8.43
2023-05-22T00:24:07.046Z,8.61
2023-05-22T00:26:33.886Z,8.73
2023-05-22T00:29:00.618Z,8.72
2023-05-22T00:31:27.388Z,8.74
2023-05-22T00:33:54.169Z,8.41
2023-05-22T00:36:20.864Z,7.80
2023-05-22T00:38:48.510Z,7.81
2023-05-22T00:41:15.357Z,7.95
2023-05-22T00:43:42.050Z,8.12
2023-05-22T00:46:10.073Z,7.89
2023-05-22T00:48:36.787Z,7.74
2023-05-22T00:51:04.088Z,7.88
2023-05-22T00:53:31.623Z,8.02
2023-05-22T00:55:59.130Z,7.70
2023-05-22T00:58:27.089Z,7.48
2023-05-22T01:00:53.994Z,7.62
2023-05-22T01:03:27.058Z,7.75
2023-05-22T01:05:54.504Z,7.49
2023-05-22T01:08:21.642Z,7.20
2023-05-22T01:10:53.275Z,7.34
2023-05-22T01:13:42.937Z,7.51
2023-05-22T01:16:25.480Z,7.08
2023-05-22T01:19:26.224Z,6.92
2023-05-22T01:22:25.161Z,7.10
2023-05-22T01:25:26.886Z,6.85
2023-05-22T01:28:19.581Z,6.73
2023-05-22T01:30:59.994Z,6.90
2023-05-22T01:33:33.548Z,6.65
2023-05-22T01:36:02.189Z,6.51
2023-05-22T01:38:29.777Z,6.76
2023-05-22T01:40:56.877Z,6.68
2023-05-22T01:43:23.964Z,6.53
2023-05-22T01:45:51.548Z,6.65
2023-05-22T01:48:18.724Z,6.75
2023-05-22T01:50:49.709Z,6.62
2023-05-22T01:53:31.066Z,6.50
2023-05-22T01:56:00.967Z,6.68
2023-05-22T01:58:46.867Z,6.53
2023-05-22T02:01:15.117Z,6.61
2023-05-22T02:03:42.714Z,6.83
2023-05-22T02:06:14.363Z,6.62
2023-05-22T02:08:42.925Z,6.40
2023-05-22T02:11:12.992Z,6.42
2023-05-22T02:13:40.622Z,6.56
2023-05-22T02:16:07.668Z,6.34
2023-05-22T02:18:34.496Z,6.24
2023-05-22T02:21:02.743Z,6.30
2023-05-22T02:23:29.955Z,6.24
2023-05-22T02:25:57.131Z,6.27
2023-05-22T02:28:24.407Z,6.40
2023-05-22T02:30:51.314Z,6.50
2023-05-22T02:33:18.724Z,6.43
2023-05-22T02:35:45.937Z,6.48
2023-05-22T02:38:12.966Z,6.64
2023-05-22T02:40:40.282Z,6.45
2023-05-22T02:43:07.224Z,6.36
2023-05-22T02:45:33.971Z,6.57
2023-05-22T02:48:03.562Z,6.49
2023-05-22T02:50:30.973Z,6.36
2023-05-22T02:52:57.669Z,6.54
2023-05-22T02:55:24.719Z,6.56
2023-05-22T02:57:52.721Z,6.35
2023-05-22T03:00:19.979Z,6.43
2023-05-22T03:02:46.861Z,6.63
2023-05-22T03:05:18.196Z,6.57
2023-05-22T03:07:48.432Z,6.49
2023-05-22T03:10:15.605Z,6.68
2023-05-22T03:12:42.681Z,6.54
2023-05-22T03:15:10.074Z,6.47
2023-05-22T03:17:36.777Z,6.64
2023-05-22T03:20:05.482Z,6.63
2023-05-22T03:22:32.334Z,6.65
2023-05-22T03:24:59.038Z,6.75
2023-05-22T03:27:25.712Z,6.89
2023-05-22T03:29:52.760Z,6.79
2023-05-22T03:32:19.615Z,6.75
2023-05-22T03:34:46.313Z,6.87
2023-05-22T03:37:12.963Z,6.81
2023-05-22T03:39:39.903Z,6.85
2023-05-22T03:42:06.893Z,7.10
2023-05-22T03:44:33.673Z,7.11
2023-05-22T03:47:00.362Z,7.05
2023-05-22T03:49:26.996Z,7.20
2023-05-22T03:51:53.691Z,7.19
2023-05-22T03:54:20.395Z,7.16
2023-05-22T03:56:48.047Z,7.27
2023-05-22T03:59:15.094Z,7.39
2023-05-22T04:01:41.939Z,7.30
2023-05-22T04:04:09.677Z,7.39
2023-05-22T04:06:43.162Z,7.54
2023-05-22T04:09:13.910Z,7.52
2023-05-22T04:11:42.202Z,7.58
2023-05-22T04:14:09.537Z,7.80
2023-05-22T04:16:36.387Z,7.81
2023-05-22T04:19:03.837Z,7.96
2023-05-22T04:21:34.168Z,8.13
2023-05-22T04:24:01.827Z,8.12
2023-05-22T04:26:32.156Z,8.23
2023-05-22T04:28:59.489Z,8.40
2023-05-22T04:31:26.308Z,8.40
2023-05-22T04:33:54.740Z,8.56
2023-05-22T04:36:26.654Z,8.74
2023-05-22T04:38:54.608Z,8.75
2023-05-22T04:41:26.774Z,8.90
2023-05-22T04:43:54.132Z,9.05
2023-05-22T04:46:21.304Z,9.05
2023-05-22T04:48:48.100Z,9.26
2023-05-22T04:51:15.346Z,9.38
2023-05-22T04:53:42.004Z,9.40
2023-05-22T04:56:09.106Z,9.62
2023-05-22T04:58:38.395Z,9.85
2023-05-22T05:01:05.266Z,9.98
2023-05-22T05:03:32.031Z,9.89
2023-05-22T05:06:00.511Z,10.12
2023-05-22T05:08:27.199Z,10.31
2023-05-22T05:10:54.243Z,10.18
2023-05-22T05:13:21.013Z,10.28
2023-05-22T05:15:47.703Z,10.50
2023-05-22T05:18:14.475Z,10.51
2023-05-22T05:20:41.350Z,10.50
2023-05-22T05:23:10.068Z,10.74
2023-05-22T05:25:38.791Z,10.88
2023-05-22T05:28:10.855Z,10.80
2023-05-22T05:30:39.313Z,11.07
2023-05-22T05:33:07.298Z,11.28
2023-05-22T05:35:34.435Z,11.10
2023-05-22T05:38:01.713Z,11.29
2023-05-22T05:40:28.524Z,11.57
2023-05-22T05:42:55.184Z,11.45
2023-05-22T05:45:22.306Z,11.62
2023-05-22T05:47:49.954Z,11.87
2023-05-22T05:50:17.292Z,11.76
2023-05-22T05:52:44.213Z,11.90
2023-05-22T05:55:10.993Z,12.21
2023-05-22T05:57:37.813Z,12.12
2023-05-22T06:00:05.951Z,12.35
2023-05-22T06:02:32.818Z,12.68
2023-05-22T06:04:59.625Z,12.78
2023-05-22T06:07:26.272Z,12.86
2023-05-22T06:09:52.981Z,13.18
2023-05-22T06:12:19.761Z,13.17
2023-05-22T06:14:46.429Z,13.27
2023-05-22T06:17:13.177Z,13.53
2023-05-22T06:19:39.895Z,13.66
2023-05-22T06:22:06.598Z,13.78
2023-05-22T06:24:33.902Z,14.08
2023-05-22T06:27:01.658Z,14.31
2023-05-22T06:29:28.392Z,14.54
2023-05-22T06:31:55.060Z,14.75
2023-05-22T06:34:22.661Z,14.89
2023-05-22T06:36:50.611Z,15.03
2023-05-22T06:39:18.147Z,15.20
2023-05-22T06:41:45.952Z,15.14
2023-05-22T06:44:13.045Z,15.06
2023-05-22T06:46:40.169Z,15.28
2023-05-22T06:49:06.976Z,15.49
2023-05-22T06:51:34.230Z,15.66
2023-05-22T06:54:01.134Z,15.78
2023-05-22T06:56:27.922Z,15.95
2023-05-22T06:58:55.038Z,15.85
2023-05-22T07:01:22.325Z,15.83
2023-05-22T07:03:49.005Z,16.07
2023-05-22T07:06:16.242Z,16.30
2023-05-22T07:08:42.927Z,16.53
2023-05-22T07:11:09.636Z,16.65
2023-05-22T07:13:36.585Z,16.68
2023-05-22T07:16:03.328Z,16.82
2023-05-22T07:18:30.023Z,16.97
2023-05-22T07:20:56.724Z,17.05
2023-05-22T07:23:24.424Z,17.11
2023-05-22T07:25:52.911Z,17.26
2023-05-22T07:28:19.644Z,17.43
2023-05-22T07:30:46.349Z,17.57
2023-05-22T07:33:13.992Z,17.73
2023-05-22T07:35:41.103Z,17.85
2023-05-22T07:38:07.794Z,17.96
2023-05-22T07:40:34.805Z,18.00
2023-05-22T07:43:01.448Z,18.14
2023-05-22T07:45:28.143Z,18.26
2023-05-22T07:50:45.748Z,18.43
2023-05-22T07:53:12.510Z,18.48
2023-05-22T07:55:40.198Z,18.59
2023-05-22T07:58:08.819Z,18.67
2023-05-22T08:00:35.950Z,18.70
2023-05-22T08:03:02.803Z,18.82
2023-05-22T08:05:30.420Z,18.92
2023-05-22T08:07:57.105Z,18.96
2023-05-22T08:10:23.857Z,19.00
2023-05-22T08:12:50.521Z,19.03
2023-05-22T08:15:17.707Z,19.10
2023-05-22T08:17:44.618Z,19.15
2023-05-22T08:20:12.039Z,19.20
2023-05-22T08:22:40.376Z,19.31
2023-05-22T08:25:07.327Z,19.46
2023-05-22T08:27:34.372Z,19.58
2023-05-22T08:30:02.259Z,19.57
2023-05-22T08:32:30.576Z,19.59
2023-05-22T08:34:59.328Z,19.65
2023-05-22T08:37:26.330Z,19.72
2023-05-22T08:39:53.019Z,19.78
2023-05-22T08:42:19.892Z,19.89
2023-05-22T08:44:49.004Z,19.98
2023-05-22T08:47:16.361Z,20.12
2023-05-22T08:49:44.039Z,20.21
2023-05-22T08:52:14.613Z,20.30
2023-05-22T08:54:45.301Z,20.34
2023-05-22T08:57:12.351Z,20.38
2023-05-22T08:59:41.532Z,20.42
2023-05-22T09:02:09.792Z,20.49
2023-05-22T09:04:37.064Z,20.62
2023-05-22T09:07:05.663Z,20.72
2023-05-22T09:09:42.018Z,20.65
2023-05-22T09:12:10.674Z,20.75
2023-05-22T09:14:42.237Z,20.82
2023-05-22T09:17:11.393Z,20.88
2023-05-22T09:19:42.997Z,20.95
2023-05-22T09:22:09.764Z,20.98
2023-05-22T09:24:44.826Z,20.99
2023-05-22T09:27:12.092Z,21.12
2023-05-22T09:29:57.839Z,21.22
2023-05-22T09:32:24.703Z,21.27
2023-05-22T09:34:51.516Z,21.29
2023-05-22T09:37:18.775Z,21.33
2023-05-22T09:39:47.554Z,21.42
2023-05-22T09:42:18.230Z,21.46
2023-05-22T09:44:49.552Z,21.51
2023-05-22T09:47:16.462Z,21.54
2023-05-22T09:49:44.829Z,21.58
2023-05-22T09:52:12.717Z,21.68
2023-05-22T09:54:55.866Z,21.73
2023-05-22T09:57:25.073Z,21.77
2023-05-22T09:59:54.449Z,21.84
2023-05-22T10:02:25.856Z,21.87
2023-05-22T10:04:53.524Z,21.89
2023-05-22T10:07:26.651Z,21.73
2023-05-22T10:10:07.717Z,21.60
2023-05-22T10:12:41.701Z,21.54
2023-05-22T10:15:09.984Z,21.49
2023-05-22T10:17:38.222Z,21.47
2023-05-22T10:20:08.038Z,21.53
2023-05-22T10:22:37.453Z,21.61
2023-05-22T10:25:06.117Z,21.64
2023-05-22T10:27:33.476Z,21.68
2023-05-22T10:30:09.356Z,21.79
2023-05-22T10:33:06.420Z,21.76
2023-05-22T10:35:44.315Z,21.78
2023-05-22T10:38:41.050Z,21.93
2023-05-22T10:41:08.382Z,21.97
2023-05-22T10:43:39.103Z,22.09
2023-05-22T10:46:07.753Z,22.13
2023-05-22T10:48:38.495Z,22.14
2023-05-22T10:51:07.477Z,22.06
2023-05-22T10:53:34.988Z,21.93
2023-05-22T10:56:15.560Z,22.01
2023-05-22T10:59:02.762Z,22.05
2023-05-22T11:01:29.545Z,22.10
2023-05-22T11:04:13.482Z,22.09
2023-05-22T11:07:02.654Z,22.07
2023-05-22T11:09:43.421Z,22.03
2023-05-22T11:12:12.766Z,22.11
2023-05-22T11:14:39.680Z,22.22
2023-05-22T11:17:07.017Z,22.28
2023-05-22T11:19:34.046Z,22.29
2023-05-22T11:22:02.251Z,22.13
2023-05-22T11:24:34.210Z,21.91
2023-05-22T11:27:05.082Z,21.88
2023-05-22T11:29:32.538Z,21.79
2023-05-22T11:32:00.170Z,21.62
2023-05-22T11:34:27.401Z,21.47
2023-05-22T11:37:01.608Z,21.37
2023-05-22T11:39:28.482Z,21.29
2023-05-22T11:41:55.450Z,21.34
2023-05-22T11:44:22.232Z,21.43
2023-05-22T11:46:49.187Z,21.48
2023-05-22T11:49:17.425Z,21.51
2023-05-22T11:51:44.553Z,21.59
2023-05-22T11:54:11.345Z,21.54
2023-05-22T11:56:38.187Z,21.58
2023-05-22T11:59:05.373Z,21.53
2023-05-22T12:01:32.796Z,21.57
2023-05-22T12:03:59.741Z,21.52
2023-05-22T12:06:26.683Z,21.60
2023-05-22T12:08:53.885Z,21.62
2023-05-22T12:11:22.033Z,21.69
2023-05-22T12:13:52.162Z,21.77
2023-05-22T12:16:22.135Z,21.79
2023-05-22T12:18:53.520Z,21.63
2023-05-22T12:21:21.243Z,21.52
2023-05-22T12:23:50.116Z,21.45
2023-05-22T12:26:17.650Z,21.40
2023-05-22T12:28:44.708Z,21.28
2023-05-22T12:31:11.460Z,21.25
2023-05-22T12:33:39.891Z,21.23
2023-05-22T12:36:10.869Z,21.33
2023-05-22T12:38:39.543Z,21.39
2023-05-22T12:41:06.358Z,21.18
2023-05-22T12:43:33.247Z,21.12
2023-05-22T12:46:02.351Z,21.18
2023-05-22T12:48:29.532Z,21.09
2023-05-22T12:50:56.689Z,21.09
2023-05-22T12:53:23.404Z,21.09
2023-05-22T12:55:50.110Z,21.13
2023-05-22T12:58:16.929Z,21.16
2023-05-22T13:00:45.541Z,21.17
2023-05-22T13:03:12.605Z,21.12
2023-05-22T13:05:39.581Z,21.10
2023-05-22T13:08:06.580Z,21.07
2023-05-22T13:10:33.391Z,21.10
2023-05-22T13:13:00.080Z,21.13
2023-05-22T13:15:29.583Z,21.14
2023-05-22T13:17:57.020Z,21.25
2023-05-22T13:20:23.863Z,21.38
2023-05-22T13:22:50.594Z,21.45
2023-05-22T13:25:19.053Z,21.54
2023-05-22T13:27:46.365Z,21.50
2023-05-22T13:30:14.815Z,21.46
2023-05-22T13:32:41.529Z,21.54
2023-05-22T13:35:09.151Z,21.69
2023-05-22T13:40:02.865Z,21.68
2023-05-22T13:42:29.650Z,21.68
2023-05-22T13:44:57.606Z,21.68
2023-05-22T13:47:24.419Z,21.71
2023-05-22T13:49:51.245Z,21.71
2023-05-22T13:52:17.995Z,21.65
2023-05-22T13:54:44.704Z,21.54
2023-05-22T13:57:11.501Z,21.48
2023-05-22T13:59:40.137Z,21.42
2023-05-22T14:02:07.745Z,21.31
2023-05-22T14:04:35.753Z,21.26
2023-05-22T14:07:02.570Z,21.28
2023-05-22T14:09:30.408Z,21.29
2023-05-22T14:11:58.046Z,21.24
2023-05-22T14:14:25.134Z,21.26
2023-05-22T14:16:52.342Z,21.24
2023-05-22T14:19:21.187Z,21.25
2023-05-22T14:21:49.382Z,21.20
2023-05-22T14:24:16.072Z,21.22
2023-05-22T14:26:42.797Z,21.15
2023-05-22T14:29:09.620Z,21.14
2023-05-22T14:31:51.486Z,21.08
2023-05-22T14:34:19.156Z,21.07
2023-05-22T14:36:46.889Z,21.15
2023-05-22T14:39:13.566Z,21.24
2023-05-22T14:41:40.224Z,21.20
2023-05-22T14:44:06.898Z,21.22
2023-05-22T14:46:35.012Z,21.34
2023-05-22T14:49:01.770Z,21.43
2023-05-22T14:51:28.530Z,21.52
2023-05-22T14:53:55.542Z,21.47
2023-05-22T14:56:23.088Z,21.53
2023-05-22T14:58:50.223Z,21.48
2023-05-22T15:01:17.688Z,21.46
2023-05-22T15:03:44.462Z,21.56
2023-05-22T15:06:11.289Z,21.55
2023-05-22T15:08:38.066Z,21.58
2023-05-22T15:11:06.233Z,21.57
2023-05-22T15:13:32.955Z,21.73
2023-05-22T15:15:59.682Z,21.81
2023-05-22T15:18:27.325Z,21.80
2023-05-22T15:20:54.342Z,21.85
2023-05-22T15:23:25.241Z,21.89
2023-05-22T15:25:56.726Z,21.94
2023-05-22T15:28:23.382Z,22.02
2023-05-22T15:30:50.067Z,22.04
2023-05-22T15:33:16.897Z,21.95
2023-05-22T15:35:46.661Z,21.95
2023-05-22T15:38:13.810Z,21.91
2023-05-22T15:40:41.809Z,21.90
2023-05-22T15:43:08.588Z,21.82
2023-05-22T15:45:39.077Z,21.81
2023-05-22T15:48:07.316Z,21.82
2023-05-22T15:50:34.461Z,21.89
2023-05-22T15:53:01.571Z,21.93
2023-05-22T15:55:28.597Z,21.83
2023-05-22T15:57:55.402Z,21.75
2023-05-22T16:00:22.568Z,21.75
2023-05-22T16:02:49.554Z,21.76
2023-05-22T16:05:18.069Z,21.85
2023-05-22T16:07:46.040Z,21.77
2023-05-22T16:10:12.778Z,21.79
2023-05-22T16:12:41.754Z,21.81
2023-05-22T16:15:09.227Z,21.77
2023-05-22T16:17:35.893Z,21.65
2023-05-22T16:20:04.754Z,21.56
2023-05-22T16:22:44.311Z,21.49
2023-05-22T16:25:18.001Z,21.40
2023-05-22T16:27:44.719Z,21.32
2023-05-22T16:30:12.367Z,21.29
2023-05-22T16:32:39.316Z,21.23
2023-05-22T16:35:06.406Z,21.20
2023-05-22T16:37:33.755Z,21.12
2023-05-22T16:40:00.611Z,21.04
2023-05-22T16:42:28.629Z,20.99
2023-05-22T16:44:55.461Z,20.97
2023-05-22T16:47:23.550Z,20.91
2023-05-22T16:49:50.387Z,20.88
2023-05-22T16:52:18.165Z,20.85
2023-05-22T16:54:44.892Z,20.74
2023-05-22T16:57:12.576Z,20.70
2023-05-22T16:59:39.250Z,20.60
2023-05-22T17:02:05.960Z,20.57
2023-05-22T17:04:32.813Z,20.49
2023-05-22T17:06:59.563Z,20.33
2023-05-22T17:09:27.650Z,20.25
2023-05-22T17:11:54.862Z,20.17
2023-05-22T17:14:23.202Z,20.17
2023-05-22T17:16:49.970Z,20.24
2023-05-22T17:19:21.134Z,20.17
2023-05-22T17:21:47.842Z,20.06
2023-05-22T17:24:15.745Z,20.06
2023-05-22T17:26:43.213Z,20.10
2023-05-22T17:29:12.128Z,20.13
2023-05-22T17:31:39.644Z,20.10
2023-05-22T17:34:08.018Z,20.13
2023-05-22T17:36:34.665Z,20.11
2023-05-22T17:39:02.722Z,20.03
2023-05-22T17:41:29.441Z,19.91
2023-05-22T17:43:58.222Z,19.84
2023-05-22T17:46:24.956Z,19.88
2023-05-22T17:48:53.149Z,19.89
2023-05-22T17:51:19.790Z,19.94
2023-05-22T17:53:46.511Z,19.96
2023-05-22T17:56:13.306Z,19.92
2023-05-22T17:58:40.947Z,19.98
2023-05-22T18:01:08.040Z,20.02
2023-05-22T18:03:34.846Z,19.89
2023-05-22T18:06:02.888Z,19.85
2023-05-22T18:08:29.551Z,19.84
2023-05-22T18:10:57.903Z,19.79
2023-05-22T18:13:24.670Z,19.66
2023-05-22T18:15:51.746Z,19.55
2023-05-22T18:18:20.077Z,19.44
2023-05-22T18:20:46.778Z,19.37
2023-05-22T18:23:13.791Z,19.23
2023-05-22T18:25:40.983Z,19.18
2023-05-22T18:28:08.415Z,19.12
2023-05-22T18:30:35.101Z,19.06
2023-05-22T18:33:02.001Z,19.02
2023-05-22T18:35:29.929Z,18.94
2023-05-22T18:37:58.743Z,18.92
2023-05-22T18:40:26.918Z,18.94
2023-05-22T18:42:53.553Z,18.92
2023-05-22T18:45:21.402Z,18.87
2023-05-22T18:47:48.110Z,18.84
2023-05-22T18:50:14.822Z,18.80
2023-05-22T18:52:41.613Z,18.74
2023-05-22T18:55:08.704Z,18.69
2023-05-22T18:57:35.782Z,18.60
2023-05-22T19:00:02.867Z,18.57
2023-05-22T19:02:29.686Z,18.53
2023-05-22T19:04:56.528Z,18.44
2023-05-22T19:07:23.307Z,18.41
2023-05-22T19:09:49.992Z,18.39
2023-05-22T19:12:16.925Z,18.38
2023-05-22T19:14:43.712Z,18.27
2023-05-22T19:17:10.586Z,18.12
2023-05-22T19:19:37.369Z,18.06
2023-05-22T19:22:04.213Z,18.00
2023-05-22T19:24:32.410Z,17.92
2023-05-22T19:26:59.072Z,17.86
2023-05-22T19:29:25.829Z,17.82
2023-05-22T19:31:52.549Z,17.83
2023-05-22T19:34:19.180Z,17.74
2023-05-22T19:36:47.442Z,17.69
2023-05-22T19:39:14.097Z,17.65
2023-05-22T19:41:40.798Z,17.64
2023-05-22T19:44:07.439Z,17.68
2023-05-22T19:46:34.309Z,17.51
2023-05-22T19:49:02.457Z,17.46
2023-05-22T19:51:30.477Z,17.48
2023-05-22T19:53:57.124Z,17.37
2023-05-22T19:56:23.927Z,17.21
2023-05-22T19:58:51.210Z,17.10
2023-05-22T20:01:18.576Z,17.11
2023-05-22T20:03:45.637Z,17.01
2023-05-22T20:06:12.533Z,16.95
2023-05-22T20:08:41.387Z,16.79
2023-05-22T20:11:08.495Z,16.77
2023-05-22T20:13:35.186Z,16.67
2023-05-22T20:16:13.827Z,16.55
2023-05-22T20:18:42.798Z,16.54
2023-05-22T20:21:11.512Z,16.52
2023-05-22T20:23:41.576Z,16.54
2023-05-22T20:26:08.289Z,16.44
2023-05-22T20:28:35.097Z,16.47
2023-05-22T20:31:01.785Z,16.49
2023-05-22T20:33:28.559Z,16.46
2023-05-22T20:35:55.437Z,16.48
2023-05-22T20:38:22.479Z,16.35
2023-05-22T20:40:49.694Z,16.32
2023-05-22T20:43:18.670Z,16.29
2023-05-22T20:45:45.991Z,16.28
2023-05-22T20:48:13.713Z,16.29
2023-05-22T20:50:42.081Z,16.33
2023-05-22T20:53:10.979Z,16.26
2023-05-22T20:55:37.716Z,16.19
2023-05-22T20:58:05.195Z,16.17
2023-05-22T21:00:32.488Z,16.11
2023-05-22T21:03:01.197Z,16.07
2023-05-22T21:05:28.051Z,16.11
2023-05-22T21:07:56.369Z,16.11
2023-05-22T21:10:24.944Z,16.04
2023-05-22T21:12:51.602Z,15.98
2023-05-22T21:15:18.706Z,15.91
2023-05-22T21:17:45.606Z,15.92
2023-05-22T21:20:12.465Z,15.94
2023-05-22T21:22:39.286Z,15.92
2023-05-22T21:25:06.498Z,15.90
2023-05-22T21:27:33.178Z,15.93
2023-05-22T21:29:59.828Z,15.94
2023-05-22T21:32:26.551Z,15.85
2023-05-22T21:34:53.359Z,15.80
2023-05-22T21:37:20.028Z,15.79
2023-05-22T21:39:46.710Z,15.80
2023-05-22T21:42:16.225Z,15.79
2023-05-22T21:44:44.972Z,15.70
2023-05-22T21:47:11.849Z,15.64
2023-05-22T21:49:39.724Z,15.70
2023-05-22T21:52:06.766Z,15.74
2023-05-22T21:54:33.441Z,15.71
2023-05-22T21:57:03.428Z,15.64
2023-05-22T21:59:30.144Z,15.64
2023-05-22T22:01:57.058Z,15.71
2023-05-22T22:04:23.837Z,15.66
2023-05-22T22:06:50.763Z,15.58
2023-05-22T22:09:17.671Z,15.62
2023-05-22T22:11:44.349Z,15.67
2023-05-22T22:14:13.200Z,15.67
2023-05-22T22:16:42.854Z,15.64
2023-05-22T22:19:09.974Z,15.69
2023-05-22T22:21:38.830Z,15.69
2023-05-22T22:24:05.619Z,15.65
2023-05-22T22:26:33.081Z,15.71
2023-05-22T22:28:59.796Z,15.59
2023-05-22T22:31:26.511Z,15.48
2023-05-22T22:33:53.222Z,15.42
2023-05-22T22:36:19.915Z,15.38
2023-05-22T22:38:46.681Z,15.27
2023-05-22T22:41:13.397Z,15.22
2023-05-22T22:43:40.029Z,15.24
2023-05-22T22:46:06.856Z,15.22
2023-05-22T22:48:33.770Z,15.21
2023-05-22T22:51:00.649Z,15.22
2023-05-22T22:53:27.324Z,15.16
2023-05-22T22:55:56.610Z,15.16
2023-05-22T22:58:23.671Z,15.04
2023-05-22T23:00:51.136Z,14.99
2023-05-22T23:03:17.916Z,14.97
2023-05-22T23:05:44.995Z,14.81
2023-05-22T23:08:12.285Z,14.70
2023-05-22T23:10:39.062Z,14.68
2023-05-22T23:13:05.806Z,14.66
2023-05-22T23:15:33.737Z,14.60
2023-05-22T23:18:02.508Z,14.60
2023-05-22T23:20:31.306Z,14.50
2023-05-22T23:22:59.992Z,14.44
2023-05-22T23:25:28.634Z,14.41
2023-05-22T23:27:55.902Z,14.34
2023-05-22T23:30:22.594Z,14.30
2023-05-22T23:32:49.232Z,14.16
2023-05-22T23:35:16.117Z,14.04
2023-05-22T23:37:42.818Z,13.99
2023-05-22T23:40:09.804Z,13.97
2023-05-22T23:42:36.500Z,13.92
2023-05-22T23:45:07.050Z,13.89
2023-05-22T23:47:33.726Z,13.83
2023-05-22T23:50:00.577Z,13.72
2023-05-22T23:52:27.665Z,13.75
2023-05-22T23:54:54.345Z,13.71
2023-05-22T23:57:21.930Z,13.66
2023-05-22T23:59:49.331Z,13.63
